Ashland, OR

10:27 AM PDT on August 20, 2014 (GMT -0700)
Barron Station | Change Station
CLOSE
Current Station
Personal Weather Station
Location: Ashland, OR
Elevation: 2333 ft
Nearby Weather Stations

Elev 2333 ft 42.13 °N, 122.61 °W | Updated 6 seconds ago

Scattered Clouds
Scattered Clouds
81.5 °F
Feels Like 82 °F
N
3.8
Wind Variable Wind from North
Gusts 8.9 mph

Today
High -- | Low -- °F
--% Chance of Precip.
Yesterday
High -- | Low -- °F
Precip. -- in
6:23 AM 8:03 PM
Waning Crescent, 20% visible
Pressure 29.91 in
Visibility 10.0 miles
Clouds Scattered Clouds 5000 ft
Heat Index 82 °F
Dew Point 60 °F
Humidity 48%
Rainfall 0.00 in
Snow Depth 0 in
UV 4 out of 12
Pollen 5.30 out of 12
Air Quality Not available.
Flu Activity Not available.
METAR KMFR 201653Z 04004KT 10SM SCT050 23/13 A2994 RMK AO2 SLP127 T02280133

More Conditions Fewer Conditions

Pressure 29.91 in
Visibility 10.0 miles
Clouds Scattered Clouds 5000 ft
Heat Index 82 °F
Dew Point 60 °F
Humidity 48%
Rainfall 0.00 in
Snow Depth 0 in
UV 4 out of 12
Pollen 5.30 out of 12
Air Quality Not available.
Flu Activity Not available.
METAR KMFR 201653Z 04004KT 10SM SCT050 23/13 A2994 RMK AO2 SLP127 T02280133

More Conditions Fewer Conditions

10-Day Weather Forecast

Almanac

Astronomy

Aug. 20, 2014 Rise Set
Actual Time 6:23 AM PDT 8:03 PM PDT
Civil Twilight 5:53 AM PDT 8:33 PM PDT
Nautical Twilight 5:17 AM PDT 9:08 PM PDT
Astronomical Twilight 4:39 AM PDT 9:47 PM PDT
Moon 2:05 AM PDT 4:54 PM PDT
Length of Visible Light 14h 39m
Length of Day
13h 40m
Tomorrow will be 2m 36s shorter.
Waning Crescent, 20% of the Moon is Illuminated
Today
Waning Crescent
Aug 25
New
Sep 2
First Quarter
Sep 8
Full
Sep 15
Last Quarter

Today's Extremes

State Highs State Lows

Community

WunderPhotos

Upload Photos

1,745,697 photos uploaded!

WunderBlogs® & News

By Dr. Jeff Masters
Director of Meteorology, Weather Underground
By Kari Strenfel
Meteorologist, Weather Underground
By Christopher C. Burt
Weather Historian, Weather Underground
August 20, 2014
August 20, 2014
August 20, 2014

Nearby

Snow Depth

Station Depth Elevation
Fish Lake 0 in 4665 ft
Billie Creek Divide 0 in 5300 ft
Fourmile Lake 1 in 6000 ft
Cold Springs Camp 0 in 6100 ft
Strawberry 0 in 5760 ft

Earthquake Activity

City Distance Mag. Time & Date
Rio Dell, California 144 miles 2.5 6:16 PM PDT
2014-08-13
Minimum magnitude displayed is 2.5.

Coastal Water Temperatures

Place Temperature
No Stations Reporting

Nearby Weather Stations